Time;durP1;ratioP1;P1;durP2;ratioP2;P2;SDS_P1;SDS_P2;PMS_P1;PMS_P2;Temp;Humidity;BMP_temperature;BMP_pressure;BME280_temperature;BME280_humidity;BME280_pressure;Samples;Min_cycle;Max_cycle;Signal;HPM_P1;HPM_P2
2021/11/15 00:00:20;;;;;;;23.08;11.40;;;;;;;;;;5018430;28;20077;-82
2021/11/15 00:02:47;;;;;;;23.33;11.63;;;;;;;;;;5023155;28;20042;-81
2021/11/15 00:05:14;;;;;;;24.25;13.07;;;;;;;;;;5024448;28;20089;-80
2021/11/15 00:07:41;;;;;;;25.95;12.23;;;;;;;;;;5022503;28;20045;-80
2021/11/15 00:10:15;;;;;;;24.27;11.95;;;;;;;;;;5019615;28;20543;-80
2021/11/15 00:12:42;;;;;;;26.85;11.88;;;;;;;;;;5021537;28;20518;-80
2021/11/15 00:15:09;;;;;;;23.63;11.88;;;;;;;;;;5023299;28;20383;-80
2021/11/15 00:17:36;;;;;;;22.55;11.95;;;;;;;;;;5021230;28;20084;-79
2021/11/15 00:20:03;;;;;;;28.67;11.88;;;;;;;;;;5021633;28;20506;-79
2021/11/15 00:22:29;;;;;;;30.08;14.07;;;;;;;;;;5022383;28;20069;-81
2021/11/15 00:24:56;;;;;;;28.63;13.55;;;;;;;;;;5020260;28;20077;-79
2021/11/15 00:27:24;;;;;;;24.88;12.15;;;;;;;;;;5021135;28;20065;-80
2021/11/15 00:29:50;;;;;;;29.15;13.50;;;;;;;;;;5020731;28;20073;-80
2021/11/15 00:32:17;;;;;;;32.25;13.98;;;;;;;;;;5021461;28;20137;-82
2021/11/15 00:34:43;;;;;;;29.88;14.07;;;;;;;;;;5020508;28;20074;-79
2021/11/15 00:37:10;;;;;;;27.15;13.75;;;;;;;;;;5020115;28;20418;-80
2021/11/15 00:39:36;;;;;;;26.50;12.85;;;;;;;;;;5021408;28;20088;-81
2021/11/15 00:42:03;;;;;;;26.10;12.57;;;;;;;;;;5022978;28;20077;-78
2021/11/15 00:44:31;;;;;;;27.30;12.75;;;;;;;;;;5023210;28;20076;-80
2021/11/15 00:46:57;;;;;;;33.83;14.98;;;;;;;;;;5019592;28;20069;-80
2021/11/15 00:49:24;;;;;;;28.95;15.30;;;;;;;;;;5022220;28;20069;-80
2021/11/15 00:51:50;;;;;;;33.83;15.15;;;;;;;;;;5020357;28;20440;-82
2021/11/15 00:54:17;;;;;;;27.50;13.25;;;;;;;;;;5019785;28;20065;-80
2021/11/15 00:56:43;;;;;;;29.10;13.38;;;;;;;;;;5021369;28;20050;-80
2021/11/15 00:59:10;;;;;;;27.90;14.18;;;;;;;;;;5022059;28;20380;-80
2021/11/15 01:01:38;;;;;;;24.95;12.63;;;;;;;;;;5021929;28;20073;-81
2021/11/15 01:04:05;;;;;;;25.08;12.75;;;;;;;;;;5021070;28;20038;-81
2021/11/15 01:06:31;;;;;;;21.90;12.13;;;;;;;;;;5020389;28;20046;-80
2021/11/15 01:08:58;;;;;;;30.83;12.65;;;;;;;;;;5020791;28;20072;-80
2021/11/15 01:11:25;;;;;;;26.63;12.27;;;;;;;;;;5019388;28;20073;-80
2021/11/15 01:13:52;;;;;;;31.02;13.73;;;;;;;;;;5020127;28;20050;-81
2021/11/15 01:16:19;;;;;;;25.58;12.38;;;;;;;;;;5020724;28;20073;-80
2021/11/15 01:18:49;;;;;;;22.77;11.38;;;;;;;;;;5017902;28;20076;-79
2021/11/15 01:21:16;;;;;;;21.23;10.57;;;;;;;;;;5020262;28;20065;-81
2021/11/15 01:23:43;;;;;;;22.83;11.32;;;;;;;;;;5019895;28;20061;-81
2021/11/15 01:26:10;;;;;;;24.88;11.07;;;;;;;;;;5020027;28;20076;-80
2021/11/15 01:28:37;;;;;;;23.95;11.23;;;;;;;;;;5019933;28;20042;-80
2021/11/15 01:31:04;;;;;;;21.60;11.90;;;;;;;;;;5021084;28;20080;-80
2021/11/15 01:33:31;;;;;;;26.67;12.18;;;;;;;;;;5019200;28;20099;-80
2021/11/15 01:35:58;;;;;;;26.00;11.57;;;;;;;;;;5024383;28;20514;-80
2021/11/15 01:38:25;;;;;;;22.55;10.88;;;;;;;;;;5026303;28;20050;-77
2021/11/15 01:40:52;;;;;;;23.60;11.60;;;;;;;;;;5026265;28;20081;-79
2021/11/15 01:43:19;;;;;;;25.52;11.23;;;;;;;;;;5022749;28;20062;-79
2021/11/15 01:45:45;;;;;;;27.10;11.82;;;;;;;;;;5018672;28;20046;-80
2021/11/15 01:48:13;;;;;;;27.80;12.23;;;;;;;;;;5017917;28;20493;-80
2021/11/15 01:50:40;;;;;;;22.85;11.00;;;;;;;;;;5016320;28;20080;-80
2021/11/15 01:53:10;;;;;;;25.23;11.98;;;;;;;;;;5017389;28;20466;-81
2021/11/15 01:55:37;;;;;;;25.02;11.68;;;;;;;;;;5016865;28;20077;-79
2021/11/15 01:58:08;;;;;;;23.92;11.80;;;;;;;;;;5018542;28;20064;-80
2021/11/15 02:00:37;;;;;;;24.67;10.77;;;;;;;;;;5016496;28;20042;-80
2021/11/15 02:03:04;;;;;;;23.88;12.40;;;;;;;;;;5018151;28;20069;-80
2021/11/15 02:05:30;;;;;;;26.27;12.05;;;;;;;;;;5017802;28;20061;-80
2021/11/15 02:07:57;;;;;;;26.20;11.70;;;;;;;;;;5015365;28;20478;-79
2021/11/15 02:10:25;;;;;;;23.23;11.73;;;;;;;;;;5015974;28;20494;-80
2021/11/15 02:12:51;;;;;;;25.05;11.88;;;;;;;;;;5016388;28;20077;-79
2021/11/15 02:15:18;;;;;;;25.73;12.77;;;;;;;;;;5016525;28;20046;-80
2021/11/15 02:17:47;;;;;;;28.00;12.30;;;;;;;;;;5017575;28;20056;-78
2021/11/15 02:20:16;;;;;;;25.85;12.27;;;;;;;;;;5015721;28;20060;-80
2021/11/15 02:22:43;;;;;;;26.55;11.73;;;;;;;;;;5019262;28;20490;-81
2021/11/15 02:25:10;;;;;;;33.17;14.23;;;;;;;;;;5017068;28;20042;-79
2021/11/15 02:27:37;;;;;;;25.02;11.98;;;;;;;;;;5017971;28;20053;-79
2021/11/15 02:30:06;;;;;;;27.90;12.13;;;;;;;;;;5016251;28;20077;-80
2021/11/15 02:32:33;;;;;;;24.90;11.05;;;;;;;;;;5019648;28;20714;-80
2021/11/15 02:34:59;;;;;;;27.13;12.45;;;;;;;;;;5016331;28;20049;-79
2021/11/15 02:37:27;;;;;;;27.40;13.00;;;;;;;;;;5015945;28;20050;-80
2021/11/15 02:39:54;;;;;;;27.27;12.23;;;;;;;;;;5016750;28;20069;-80
2021/11/15 02:42:21;;;;;;;30.40;13.32;;;;;;;;;;5017540;28;20460;-79
2021/11/15 02:44:47;;;;;;;32.08;13.00;;;;;;;;;;5019266;28;20050;-81
2021/11/15 02:47:14;;;;;;;29.88;12.15;;;;;;;;;;5016793;28;20064;-80
2021/11/15 02:49:41;;;;;;;27.88;13.15;;;;;;;;;;5017039;28;20108;-80
2021/11/15 02:52:08;;;;;;;27.17;12.40;;;;;;;;;;5017056;28;20065;-82
2021/11/15 02:54:36;;;;;;;32.35;14.48;;;;;;;;;;5015760;28;20133;-79
2021/11/15 02:57:03;;;;;;;30.77;13.32;;;;;;;;;;5016559;28;20073;-80
2021/11/15 02:59:29;;;;;;;32.35;14.45;;;;;;;;;;5017283;28;20124;-79
2021/11/15 03:01:56;;;;;;;27.98;14.15;;;;;;;;;;5017355;28;20611;-80
2021/11/15 03:04:22;;;;;;;29.58;13.57;;;;;;;;;;5015001;28;20042;-79
2021/11/15 03:06:49;;;;;;;31.33;13.85;;;;;;;;;;5017594;28;20069;-79
2021/11/15 03:09:15;;;;;;;30.52;15.18;;;;;;;;;;5016960;28;20417;-81
2021/11/15 03:11:43;;;;;;;30.70;12.93;;;;;;;;;;5012612;28;20088;-80
2021/11/15 03:14:10;;;;;;;28.60;13.85;;;;;;;;;;5014693;28;20073;-80
2021/11/15 03:16:37;;;;;;;29.35;13.18;;;;;;;;;;5016157;28;20080;-79
2021/11/15 03:19:03;;;;;;;28.85;13.93;;;;;;;;;;5019325;28;20604;-81
2021/11/15 03:21:30;;;;;;;29.77;13.40;;;;;;;;;;5016183;28;20092;-79
2021/11/15 03:23:57;;;;;;;28.52;13.45;;;;;;;;;;5017410;28;20069;-79
2021/11/15 03:26:26;;;;;;;28.08;13.48;;;;;;;;;;5020503;28;20065;-80
2021/11/15 03:28:55;;;;;;;27.10;12.20;;;;;;;;;;5020173;28;20054;-80
2021/11/15 03:31:24;;;;;;;26.33;13.40;;;;;;;;;;5019083;28;20042;-82
2021/11/15 03:33:52;;;;;;;28.98;13.98;;;;;;;;;;5018222;28;20447;-80
2021/11/15 03:36:18;;;;;;;27.38;12.93;;;;;;;;;;5018809;28;20086;-80
2021/11/15 03:38:45;;;;;;;28.23;13.23;;;;;;;;;;5022616;28;20080;-80
2021/11/15 03:41:13;;;;;;;30.48;13.68;;;;;;;;;;5022365;28;20057;-81
2021/11/15 03:43:39;;;;;;;25.73;12.63;;;;;;;;;;5015938;28;20482;-81
2021/11/15 03:46:08;;;;;;;25.42;11.32;;;;;;;;;;5020760;28;20702;-79
2021/11/15 03:48:35;;;;;;;28.48;14.38;;;;;;;;;;5018777;28;20130;-78
2021/11/15 03:51:02;;;;;;;26.92;12.90;;;;;;;;;;5020666;28;20104;-80
2021/11/15 03:53:31;;;;;;;29.25;13.32;;;;;;;;;;5020486;28;20431;-80
2021/11/15 03:55:58;;;;;;;25.58;12.90;;;;;;;;;;5022128;28;20053;-80
2021/11/15 03:58:25;;;;;;;29.77;13.15;;;;;;;;;;5020098;28;20070;-81
2021/11/15 04:00:52;;;;;;;27.88;12.70;;;;;;;;;;5019151;28;20073;-81
2021/11/15 04:03:29;;;;;;;28.00;12.63;;;;;;;;;;5022259;28;20046;-81
2021/11/15 04:06:00;;;;;;;31.63;12.77;;;;;;;;;;5018863;28;20188;-79
2021/11/15 04:08:26;;;;;;;28.05;13.40;;;;;;;;;;5020022;28;20763;-80
2021/11/15 04:10:53;;;;;;;25.73;12.85;;;;;;;;;;5022261;28;20065;-81
2021/11/15 04:13:23;;;;;;;28.98;12.57;;;;;;;;;;5021995;28;20077;-81
2021/11/15 04:15:52;;;;;;;33.30;15.15;;;;;;;;;;5020904;28;20053;-81
2021/11/15 04:18:23;;;;;;;26.50;11.45;;;;;;;;;;5022912;28;20076;-80
2021/11/15 04:20:49;;;;;;;26.60;12.82;;;;;;;;;;5021113;28;20077;-80
2021/11/15 04:23:16;;;;;;;30.23;12.52;;;;;;;;;;5018843;28;20077;-80
2021/11/15 04:25:43;;;;;;;26.98;12.27;;;;;;;;;;5018040;28;20120;-82
2021/11/15 04:28:10;;;;;;;29.23;12.63;;;;;;;;;;5017228;28;20049;-80
2021/11/15 04:30:36;;;;;;;25.35;12.60;;;;;;;;;;5020283;28;20088;-79
2021/11/15 04:33:05;;;;;;;27.60;12.82;;;;;;;;;;5019499;28;20069;-81
2021/11/15 04:35:34;;;;;;;25.17;11.90;;;;;;;;;;5020623;28;20053;-79
2021/11/15 04:38:02;;;;;;;31.77;13.20;;;;;;;;;;5019633;28;20053;-79
2021/11/15 04:40:29;;;;;;;28.30;13.30;;;;;;;;;;5017602;28;20046;-80
2021/11/15 04:42:55;;;;;;;28.85;11.50;;;;;;;;;;5020254;28;20046;-81
2021/11/15 04:45:22;;;;;;;31.65;12.88;;;;;;;;;;5022522;28;20103;-80
2021/11/15 04:47:49;;;;;;;22.10;10.60;;;;;;;;;;5014838;28;20054;-82
2021/11/15 04:50:16;;;;;;;32.78;12.93;;;;;;;;;;5017523;28;20058;-80
2021/11/15 04:52:46;;;;;;;27.77;13.32;;;;;;;;;;5021272;28;20622;-80
2021/11/15 04:55:15;;;;;;;30.02;14.45;;;;;;;;;;5019656;28;20629;-80
2021/11/15 04:57:42;;;;;;;34.38;14.63;;;;;;;;;;5020380;28;20076;-79
2021/11/15 05:00:12;;;;;;;30.13;11.93;;;;;;;;;;5019292;28;20080;-80
2021/11/15 05:02:39;;;;;;;31.38;13.48;;;;;;;;;;5019180;28;20069;-79
2021/11/15 05:05:06;;;;;;;27.58;13.40;;;;;;;;;;5021243;28;20073;-81
2021/11/15 05:07:33;;;;;;;29.10;12.82;;;;;;;;;;5019139;28;20069;-80
2021/11/15 05:10:03;;;;;;;25.80;12.85;;;;;;;;;;5019615;28;20135;-83
2021/11/15 05:12:34;;;;;;;21.33;11.60;;;;;;;;;;5018220;28;20077;-82
2021/11/15 05:15:01;;;;;;;24.25;12.05;;;;;;;;;;5019005;28;20099;-80
2021/11/15 05:17:27;;;;;;;31.67;13.65;;;;;;;;;;5020582;28;20081;-80
2021/11/15 05:19:54;;;;;;;27.23;12.38;;;;;;;;;;5020445;28;20042;-82
2021/11/15 05:22:20;;;;;;;29.83;14.18;;;;;;;;;;5024375;28;20042;-82
2021/11/15 05:24:47;;;;;;;27.60;12.13;;;;;;;;;;5018331;28;20072;-80
2021/11/15 05:27:15;;;;;;;30.80;11.98;;;;;;;;;;5017918;28;20065;-80
2021/11/15 05:29:42;;;;;;;31.67;12.57;;;;;;;;;;5018657;28;20104;-80
2021/11/15 05:32:09;;;;;;;31.80;12.43;;;;;;;;;;5019045;28;20049;-82
2021/11/15 05:34:35;;;;;;;31.23;12.43;;;;;;;;;;5020546;28;20081;-81
2021/11/15 05:37:02;;;;;;;32.10;12.68;;;;;;;;;;5019840;28;20050;-81
2021/11/15 05:39:29;;;;;;;24.55;11.82;;;;;;;;;;5019548;28;20470;-80
2021/11/15 05:41:57;;;;;;;25.83;12.48;;;;;;;;;;5019140;28;20069;-80
2021/11/15 05:44:25;;;;;;;32.72;13.88;;;;;;;;;;5019952;28;20046;-80
2021/11/15 05:46:52;;;;;;;28.40;12.52;;;;;;;;;;5019230;28;20129;-81
2021/11/15 05:49:18;;;;;;;27.35;12.75;;;;;;;;;;5019377;28;20052;-80
2021/11/15 05:51:45;;;;;;;27.48;12.60;;;;;;;;;;5018693;28;20088;-81
2021/11/15 05:54:12;;;;;;;28.05;12.85;;;;;;;;;;5019483;28;20053;-79
2021/11/15 05:56:38;;;;;;;28.13;12.95;;;;;;;;;;5018548;28;20073;-80
2021/11/15 05:59:05;;;;;;;32.47;13.98;;;;;;;;;;5016395;28;20073;-81
2021/11/15 06:01:33;;;;;;;34.05;14.00;;;;;;;;;;5019104;28;20533;-80
2021/11/15 06:04:00;;;;;;;28.08;12.55;;;;;;;;;;5016110;28;20406;-80
2021/11/15 06:06:27;;;;;;;27.90;12.80;;;;;;;;;;5017650;28;20777;-80
2021/11/15 06:08:53;;;;;;;33.53;14.70;;;;;;;;;;5017275;28;20042;-81
2021/11/15 06:11:20;;;;;;;31.50;13.63;;;;;;;;;;5020285;28;20378;-83
2021/11/15 06:13:46;;;;;;;36.22;13.35;;;;;;;;;;5020452;28;20057;-80
2021/11/15 06:16:13;;;;;;;32.25;12.82;;;;;;;;;;5018300;28;20050;-81
2021/11/15 06:18:41;;;;;;;35.15;13.52;;;;;;;;;;5019392;28;20046;-81
2021/11/15 06:21:08;;;;;;;29.30;12.38;;;;;;;;;;5020880;28;20081;-81
2021/11/15 06:23:35;;;;;;;33.13;13.85;;;;;;;;;;5021547;28;20085;-82
2021/11/15 06:26:01;;;;;;;27.27;13.30;;;;;;;;;;5019484;28;20072;-81
2021/11/15 06:28:28;;;;;;;27.38;12.55;;;;;;;;;;5019980;28;20088;-79
2021/11/15 06:30:54;;;;;;;32.65;11.77;;;;;;;;;;5019196;28;20410;-80
2021/11/15 06:33:21;;;;;;;27.70;11.43;;;;;;;;;;5019868;28;20074;-81
2021/11/15 06:35:49;;;;;;;29.92;13.48;;;;;;;;;;5019688;28;20086;-80
2021/11/15 06:38:16;;;;;;;31.35;12.18;;;;;;;;;;5018717;28;20042;-80
2021/11/15 06:40:43;;;;;;;25.83;11.43;;;;;;;;;;5018938;28;20041;-78
2021/11/15 06:43:09;;;;;;;27.77;13.00;;;;;;;;;;5018490;28;20081;-80
2021/11/15 06:45:36;;;;;;;27.00;11.65;;;;;;;;;;5019208;28;20069;-81
2021/11/15 06:48:03;;;;;;;27.73;12.43;;;;;;;;;;5019638;28;20073;-79
2021/11/15 06:50:29;;;;;;;28.92;13.13;;;;;;;;;;5023787;28;20048;-81
2021/11/15 06:52:57;;;;;;;28.17;12.10;;;;;;;;;;5024249;28;20081;-80
2021/11/15 06:55:25;;;;;;;27.48;12.73;;;;;;;;;;5023196;28;20080;-81
2021/11/15 06:57:52;;;;;;;26.85;11.38;;;;;;;;;;5017446;28;20088;-80
2021/11/15 07:00:21;;;;;;;29.35;11.80;;;;;;;;;;5018510;28;20038;-80
2021/11/15 07:02:49;;;;;;;31.85;13.25;;;;;;;;;;5019748;28;20045;-80
2021/11/15 07:05:15;;;;;;;29.73;12.85;;;;;;;;;;5018660;28;20076;-79
2021/11/15 07:07:42;;;;;;;29.50;12.60;;;;;;;;;;5020018;28;21072;-80
2021/11/15 07:10:13;;;;;;;27.73;12.07;;;;;;;;;;5018068;28;20081;-81
2021/11/15 07:12:40;;;;;;;29.50;13.52;;;;;;;;;;5019748;28;20046;-81
2021/11/15 07:15:08;;;;;;;31.52;13.85;;;;;;;;;;5019119;28;20080;-81
2021/11/15 07:17:34;;;;;;;30.75;13.05;;;;;;;;;;5016874;28;20081;-81
2021/11/15 07:20:01;;;;;;;32.95;12.13;;;;;;;;;;5017117;28;20081;-79
2021/11/15 07:22:28;;;;;;;28.13;12.27;;;;;;;;;;5019521;28;20042;-79
2021/11/15 07:24:54;;;;;;;26.50;11.63;;;;;;;;;;5017423;28;20070;-81
2021/11/15 07:27:22;;;;;;;25.35;12.20;;;;;;;;;;5017876;28;20042;-81
2021/11/15 07:29:49;;;;;;;31.35;12.63;;;;;;;;;;5018942;28;20069;-82
2021/11/15 07:32:15;;;;;;;29.77;12.35;;;;;;;;;;5018008;28;20069;-81
2021/11/15 07:34:42;;;;;;;26.77;11.27;;;;;;;;;;5018037;28;20109;-81
2021/11/15 07:37:09;;;;;;;32.95;13.77;;;;;;;;;;5016928;28;20058;-81
2021/11/15 07:39:42;;;;;;;29.80;12.85;;;;;;;;;;5018539;28;20104;-81
2021/11/15 07:42:09;;;;;;;30.60;14.60;;;;;;;;;;5017939;28;20053;-81
2021/11/15 07:44:37;;;;;;;26.15;11.98;;;;;;;;;;5016765;28;20077;-82
2021/11/15 07:47:04;;;;;;;27.02;11.20;;;;;;;;;;5017067;28;20081;-81
2021/11/15 07:49:31;;;;;;;30.23;12.10;;;;;;;;;;5016270;28;20425;-81
2021/11/15 07:51:58;;;;;;;32.10;12.68;;;;;;;;;;5016926;28;20080;-81
2021/11/15 07:54:25;;;;;;;30.08;13.15;;;;;;;;;;5019349;28;20046;-81
2021/11/15 07:56:51;;;;;;;31.27;14.32;;;;;;;;;;5017164;28;20084;-81
2021/11/15 07:59:18;;;;;;;33.83;14.25;;;;;;;;;;5017861;28;20069;-81
2021/11/15 08:01:46;;;;;;;33.35;13.27;;;;;;;;;;5016539;28;20100;-80
2021/11/15 08:04:12;;;;;;;32.10;13.52;;;;;;;;;;5014506;28;20467;-81
2021/11/15 08:06:39;;;;;;;27.45;13.52;;;;;;;;;;5017285;28;20498;-80
2021/11/15 08:09:05;;;;;;;30.80;13.52;;;;;;;;;;5016367;28;20129;-81
2021/11/15 08:11:32;;;;;;;32.17;14.35;;;;;;;;;;5017766;28;20049;-81
2021/11/15 08:13:59;;;;;;;32.38;13.20;;;;;;;;;;5016031;28;20586;-82
2021/11/15 08:16:26;;;;;;;30.85;13.40;;;;;;;;;;5016529;28;20502;-83
2021/11/15 08:18:54;;;;;;;28.40;13.15;;;;;;;;;;5016036;28;20064;-80
2021/11/15 08:21:21;;;;;;;30.80;12.27;;;;;;;;;;5016058;28;20073;-81
2021/11/15 08:23:50;;;;;;;27.45;13.13;;;;;;;;;;5017594;28;20065;-81
2021/11/15 08:26:30;;;;;;;26.98;11.90;;;;;;;;;;5020122;28;20878;-79
2021/11/15 08:29:06;;;;;;;29.00;13.02;;;;;;;;;;5019487;28;20046;-80
2021/11/15 08:31:34;;;;;;;29.40;14.70;;;;;;;;;;5018551;28;20152;-79
2021/11/15 08:34:02;;;;;;;30.58;13.02;;;;;;;;;;5018894;28;20072;-80
2021/11/15 08:36:28;;;;;;;33.72;13.05;;;;;;;;;;5018109;28;20081;-81
2021/11/15 08:38:58;;;;;;;29.27;13.30;;;;;;;;;;5020097;28;20105;-80
2021/11/15 08:41:28;;;;;;;36.00;14.15;;;;;;;;;;5019999;28;20096;-80
2021/11/15 08:43:56;;;;;;;30.67;13.88;;;;;;;;;;5019610;28;20066;-81
2021/11/15 08:46:25;;;;;;;31.02;13.82;;;;;;;;;;5019888;28;20073;-80
2021/11/15 08:48:51;;;;;;;36.40;13.43;;;;;;;;;;5018965;28;20050;-79
2021/11/15 08:51:20;;;;;;;32.55;14.35;;;;;;;;;;5018443;28;20045;-80
2021/11/15 08:53:47;;;;;;;34.22;13.70;;;;;;;;;;5019998;28;20050;-79
2021/11/15 08:56:14;;;;;;;30.55;13.38;;;;;;;;;;5019306;28;20054;-79
2021/11/15 08:58:41;;;;;;;29.33;13.45;;;;;;;;;;5020442;28;20042;-79
2021/11/15 09:01:09;;;;;;;37.45;15.25;;;;;;;;;;5018911;28;20078;-81
2021/11/15 09:03:38;;;;;;;35.38;13.98;;;;;;;;;;5016801;28;20088;-81
2021/11/15 09:06:05;;;;;;;30.23;12.40;;;;;;;;;;5018375;28;20570;-80
2021/11/15 09:08:33;;;;;;;30.85;14.70;;;;;;;;;;5019468;28;20077;-80
2021/11/15 09:11:00;;;;;;;30.13;12.82;;;;;;;;;;5017152;28;20570;-81
2021/11/15 09:13:27;;;;;;;30.05;13.55;;;;;;;;;;5022388;28;20072;-81
2021/11/15 09:15:53;;;;;;;32.10;14.77;;;;;;;;;;5021001;28;20053;-81
2021/11/15 09:18:23;;;;;;;30.67;15.02;;;;;;;;;;5019605;28;20081;-82
2021/11/15 09:20:49;;;;;;;27.90;13.52;;;;;;;;;;5018614;28;20104;-81
2021/11/15 09:23:16;;;;;;;30.75;13.63;;;;;;;;;;5020740;28;20084;-81
2021/11/15 09:25:45;;;;;;;36.78;14.73;;;;;;;;;;5018661;28;20138;-82
2021/11/15 09:28:12;;;;;;;31.52;15.30;;;;;;;;;;5016531;28;20046;-81
2021/11/15 09:30:41;;;;;;;36.38;14.50;;;;;;;;;;5019590;28;20069;-81
2021/11/15 09:33:08;;;;;;;33.13;14.40;;;;;;;;;;5018329;28;20070;-81
2021/11/15 09:35:34;;;;;;;37.20;16.08;;;;;;;;;;5019080;28;20057;-80
2021/11/15 09:38:02;;;;;;;36.45;14.73;;;;;;;;;;5020061;28;20073;-78
2021/11/15 09:40:28;;;;;;;37.03;16.30;;;;;;;;;;5019057;28;20045;-80
2021/11/15 09:42:57;;;;;;;37.45;15.40;;;;;;;;;;5019764;28;20100;-80
2021/11/15 09:45:24;;;;;;;35.20;17.27;;;;;;;;;;5019725;28;20072;-82
2021/11/15 09:47:50;;;;;;;34.42;15.38;;;;;;;;;;5019869;28;20046;-81
2021/11/15 09:50:18;;;;;;;35.90;16.30;;;;;;;;;;5019683;28;20058;-81
2021/11/15 09:52:45;;;;;;;32.95;15.10;;;;;;;;;;5019055;28;20046;-78
2021/11/15 09:55:11;;;;;;;37.30;16.52;;;;;;;;;;5016905;28;20072;-81
2021/11/15 09:57:40;;;;;;;31.15;14.45;;;;;;;;;;5020587;28;20157;-80
2021/11/15 10:00:11;;;;;;;37.20;15.18;;;;;;;;;;5024006;28;20053;-80
2021/11/15 10:02:38;;;;;;;32.05;14.10;;;;;;;;;;5019541;28;20072;-81
2021/11/15 10:05:07;;;;;;;34.28;13.82;;;;;;;;;;5020198;28;20050;-81
2021/11/15 10:07:38;;;;;;;32.72;14.70;;;;;;;;;;5019947;28;20065;-79
2021/11/15 10:10:25;;;;;;;34.28;14.68;;;;;;;;;;5019414;28;20050;-80
2021/11/15 10:13:10;;;;;;;32.50;14.20;;;;;;;;;;5018338;28;20073;-79
2021/11/15 10:15:58;;;;;;;34.28;15.82;;;;;;;;;;5018091;28;20045;-80
2021/11/15 10:18:37;;;;;;;33.53;14.45;;;;;;;;;;5017776;28;20400;-81
2021/11/15 10:21:07;;;;;;;34.92;15.25;;;;;;;;;;5018754;28;20077;-81
2021/11/15 10:23:39;;;;;;;36.67;16.00;;;;;;;;;;5018494;28;20078;-81
2021/11/15 10:26:11;;;;;;;38.95;15.30;;;;;;;;;;5017781;28;20491;-81
2021/11/15 10:28:38;;;;;;;34.10;15.90;;;;;;;;;;5019324;28;20046;-80
2021/11/15 10:31:06;;;;;;;36.20;16.88;;;;;;;;;;5018949;28;20046;-81
2021/11/15 10:33:35;;;;;;;35.97;15.30;;;;;;;;;;5018680;28;20481;-80
2021/11/15 10:36:02;;;;;;;35.28;15.77;;;;;;;;;;5016656;28;20069;-80
2021/11/15 10:38:43;;;;;;;35.20;16.45;;;;;;;;;;5018475;28;20085;-80
2021/11/15 10:41:15;;;;;;;31.98;15.48;;;;;;;;;;5017994;28;20049;-81
2021/11/15 10:43:41;;;;;;;34.20;16.20;;;;;;;;;;5017552;28;20053;-81
2021/11/15 10:46:09;;;;;;;31.63;14.68;;;;;;;;;;5017098;28;20041;-81
2021/11/15 10:48:46;;;;;;;32.20;15.90;;;;;;;;;;5018638;28;20053;-81
2021/11/15 10:51:16;;;;;;;32.75;15.05;;;;;;;;;;5018946;28;20046;-82
2021/11/15 10:53:55;;;;;;;38.35;17.92;;;;;;;;;;5017971;28;20521;-81
2021/11/15 10:56:27;;;;;;;34.70;15.57;;;;;;;;;;5017399;28;20091;-80
2021/11/15 10:58:55;;;;;;;32.38;15.07;;;;;;;;;;5018454;28;20049;-79
2021/11/15 11:01:29;;;;;;;35.35;16.10;;;;;;;;;;5017403;28;20052;-81
2021/11/15 11:04:07;;;;;;;35.70;17.27;;;;;;;;;;5017626;28;20046;-81
2021/11/15 11:06:34;;;;;;;35.97;16.52;;;;;;;;;;5017968;28;20037;-82
2021/11/15 11:09:00;;;;;;;36.78;15.55;;;;;;;;;;5017005;28;20107;-81
2021/11/15 11:11:29;;;;;;;38.45;15.55;;;;;;;;;;5017856;28;20053;-80
2021/11/15 11:13:58;;;;;;;37.47;16.85;;;;;;;;;;5017635;28;20042;-81
2021/11/15 11:16:39;;;;;;;36.63;16.73;;;;;;;;;;5018398;28;20054;-80
2021/11/15 11:19:16;;;;;;;40.40;16.73;;;;;;;;;;5017130;28;20165;-82
2021/11/15 11:22:08;;;;;;;33.55;14.27;;;;;;;;;;5017507;28;20046;-80
2021/11/15 11:24:42;;;;;;;37.58;16.45;;;;;;;;;;5017243;28;20454;-81
2021/11/15 11:27:10;;;;;;;36.55;16.48;;;;;;;;;;5017540;28;20045;-81
2021/11/15 11:29:39;;;;;;;35.17;16.50;;;;;;;;;;5016906;28;20061;-81
2021/11/15 11:32:09;;;;;;;40.47;17.08;;;;;;;;;;5016529;28;20080;-80
2021/11/15 11:34:37;;;;;;;29.52;13.93;;;;;;;;;;5015784;28;20041;-80
2021/11/15 11:37:06;;;;;;;30.45;13.95;;;;;;;;;;5015795;28;20057;-80
2021/11/15 11:39:35;;;;;;;34.10;14.60;;;;;;;;;;5017408;28;20045;-80
2021/11/15 11:42:02;;;;;;;32.03;15.32;;;;;;;;;;5015610;28;20438;-80
2021/11/15 11:44:30;;;;;;;33.33;15.10;;;;;;;;;;5018199;28;20049;-81
2021/11/15 11:46:59;;;;;;;28.30;12.95;;;;;;;;;;5018565;28;20084;-80
2021/11/15 11:49:28;;;;;;;34.60;14.63;;;;;;;;;;5016960;28;20088;-81
2021/11/15 11:51:58;;;;;;;28.73;14.68;;;;;;;;;;5017971;28;20077;-81
2021/11/15 11:54:28;;;;;;;31.52;13.68;;;;;;;;;;5018503;28;20042;-81
2021/11/15 11:57:00;;;;;;;24.25;13.40;;;;;;;;;;5018359;28;20058;-81
2021/11/15 11:59:27;;;;;;;30.08;13.98;;;;;;;;;;5022635;28;20045;-79
2021/11/15 12:02:02;;;;;;;28.95;13.27;;;;;;;;;;5021630;28;20100;-81
2021/11/15 12:04:31;;;;;;;32.65;13.63;;;;;;;;;;5025857;28;20061;-82
2021/11/15 12:06:58;;;;;;;34.75;15.50;;;;;;;;;;5026190;28;20104;-81
2021/11/15 12:09:45;;;;;;;27.55;15.25;;;;;;;;;;5028701;28;20038;-81
2021/11/15 12:12:13;;;;;;;31.25;14.00;;;;;;;;;;5021399;28;20502;-81
2021/11/15 12:14:41;;;;;;;32.72;14.32;;;;;;;;;;5019865;28;20045;-81
2021/11/15 12:17:10;;;;;;;34.33;14.98;;;;;;;;;;5021061;28;20085;-79
2021/11/15 12:20:04;;;;;;;32.58;14.95;;;;;;;;;;5021308;28;20593;-80
2021/11/15 12:22:54;;;;;;;36.67;16.08;;;;;;;;;;5020218;28;20046;-81
2021/11/15 12:25:23;;;;;;;33.58;15.02;;;;;;;;;;5021485;28;20053;-81
2021/11/15 12:27:53;;;;;;;39.17;16.77;;;;;;;;;;5023236;28;20060;-81
2021/11/15 12:30:22;;;;;;;35.67;15.15;;;;;;;;;;5022196;28;20046;-81
2021/11/15 12:33:22;;;;;;;36.22;16.50;;;;;;;;;;5021015;28;20046;-81
2021/11/15 12:36:07;;;;;;;32.45;13.65;;;;;;;;;;5019892;28;20053;-81
2021/11/15 12:38:39;;;;;;;35.07;16.13;;;;;;;;;;5020409;28;20144;-81
2021/11/15 12:41:35;;;;;;;32.13;14.52;;;;;;;;;;5022798;28;20037;-81
2021/11/15 12:44:22;;;;;;;31.67;14.55;;;;;;;;;;5019586;28;20728;-80
2021/11/15 12:47:01;;;;;;;34.15;15.65;;;;;;;;;;5020478;28;20042;-80
2021/11/15 12:49:35;;;;;;;36.03;16.08;;;;;;;;;;5019432;28;20080;-83
2021/11/15 12:52:28;;;;;;;34.08;15.63;;;;;;;;;;5021430;28;20056;-81
2021/11/15 12:55:00;;;;;;;35.72;16.17;;;;;;;;;;5019657;28;20041;-80
2021/11/15 12:57:46;;;;;;;34.00;15.00;;;;;;;;;;5020056;28;20057;-82
2021/11/15 13:00:16;;;;;;;32.88;14.55;;;;;;;;;;5020209;28;20050;-81
2021/11/15 13:02:45;;;;;;;36.80;15.15;;;;;;;;;;5020347;28;20400;-82
2021/11/15 13:05:12;;;;;;;42.75;15.30;;;;;;;;;;5019965;28;20077;-80
2021/11/15 13:07:38;;;;;;;33.05;15.10;;;;;;;;;;5018387;28;20069;-81
2021/11/15 13:10:08;;;;;;;33.40;14.32;;;;;;;;;;5020346;28;20089;-81
2021/11/15 13:12:37;;;;;;;35.78;16.52;;;;;;;;;;5020283;28;20132;-81
2021/11/15 13:15:06;;;;;;;35.45;16.48;;;;;;;;;;5020442;28;20478;-80
2021/11/15 13:17:33;;;;;;;34.88;15.55;;;;;;;;;;5019847;28;20060;-80
2021/11/15 13:20:03;;;;;;;40.95;16.35;;;;;;;;;;5018954;28;20161;-80
2021/11/15 13:22:31;;;;;;;33.50;15.23;;;;;;;;;;5020268;28;20482;-81
2021/11/15 13:24:58;;;;;;;37.67;15.27;;;;;;;;;;5019183;28;20054;-81
2021/11/15 13:27:27;;;;;;;30.23;15.35;;;;;;;;;;5020405;28;20046;-79
2021/11/15 13:29:55;;;;;;;32.97;15.10;;;;;;;;;;5021439;28;20053;-80
2021/11/15 13:32:23;;;;;;;37.10;15.55;;;;;;;;;;5022372;28;20049;-81
2021/11/15 13:34:52;;;;;;;34.20;15.73;;;;;;;;;;5018696;28;20045;-80
2021/11/15 13:37:20;;;;;;;38.10;16.27;;;;;;;;;;5020960;28;20118;-81
2021/11/15 13:39:48;;;;;;;39.70;17.20;;;;;;;;;;5019150;28;20068;-82
2021/11/15 13:42:15;;;;;;;33.72;15.68;;;;;;;;;;5019600;28;20103;-81
2021/11/15 13:44:43;;;;;;;41.38;17.67;;;;;;;;;;5020197;28;20070;-80
2021/11/15 13:47:26;;;;;;;37.67;17.33;;;;;;;;;;5018782;28;20458;-80
2021/11/15 13:49:53;;;;;;;43.35;19.45;;;;;;;;;;5020046;28;20110;-81
2021/11/15 13:52:20;;;;;;;45.72;20.67;;;;;;;;;;5019550;28;20070;-79
2021/11/15 13:54:49;;;;;;;48.03;20.90;;;;;;;;;;5018067;28;20046;-82
2021/11/15 13:57:17;;;;;;;45.40;20.83;;;;;;;;;;5018725;28;20049;-81
2021/11/15 13:59:46;;;;;;;45.20;19.80;;;;;;;;;;5018043;28;20050;-81
2021/11/15 14:02:13;;;;;;;36.45;17.95;;;;;;;;;;5019341;28;20046;-81
2021/11/15 14:04:39;;;;;;;41.53;18.52;;;;;;;;;;5018574;28;20125;-81
2021/11/15 14:07:06;;;;;;;44.85;19.45;;;;;;;;;;5018584;28;20050;-81
2021/11/15 14:09:33;;;;;;;41.83;19.15;;;;;;;;;;5019540;28;20053;-81
2021/11/15 14:11:59;;;;;;;42.90;19.67;;;;;;;;;;5020277;28;20076;-81
2021/11/15 14:14:26;;;;;;;40.70;19.30;;;;;;;;;;5018679;28;20037;-80
2021/11/15 14:16:54;;;;;;;41.95;18.80;;;;;;;;;;5017858;28;20077;-80
2021/11/15 14:19:21;;;;;;;42.90;21.00;;;;;;;;;;5016348;28;20052;-80
2021/11/15 14:21:48;;;;;;;42.58;17.95;;;;;;;;;;5017095;28;20057;-82
2021/11/15 14:24:14;;;;;;;38.10;18.02;;;;;;;;;;5018193;28;20054;-81